.
WxDataArchive / Data Records for 2014-07-16
2014-07-15 July 2014 2014-07-17

Data Records for Wednesday, 16 July 2014

Time	Temp	Chill	HIndex	Humid	Dewpt	 Wind 	HiWind	WindDir	Rain 	Barom
-----	----	-----	------	-----	-----	------	------	-------	-----	-----
00:00	56.0	56.0	56.0	81	50.3	0	0	---	0.00	29.918 
00:05	55.9	55.9	55.9	81	50.2	0	0	---	0.00	29.918 
00:10	55.7	55.7	55.7	82	50.3	0	0	---	0.00	29.918 
00:15	55.7	55.7	55.7	82	50.3	0	0	---	0.00	29.916 
00:20	55.7	55.7	55.7	82	50.3	0	0	---	0.00	29.916 
00:25	55.6	55.6	55.6	82	50.2	0	0	---	0.00	29.916 
00:30	55.6	55.6	55.6	82	50.2	0	0	---	0.00	29.921 
00:35	55.4	55.4	55.4	82	50.0	0	0	---	0.00	29.921 
00:40	55.3	55.3	55.3	82	49.9	0	0	---	0.00	29.921 
00:45	55.3	55.3	55.3	83	50.2	0	0	---	0.00	29.921 
00:50	55.1	55.1	55.1	83	50.0	0	0	---	0.00	29.921 
00:55	55.0	55.0	55.0	83	49.9	0	0	---	0.00	29.921 
01:00	54.8	54.8	54.8	83	49.7	0	0	---	0.00	29.922 
01:05	54.8	54.8	54.8	84	50.1	0	0	---	0.00	29.922 
01:10	54.7	54.7	54.7	84	50.0	0	0	---	0.00	29.922 
01:15	54.5	54.5	54.5	84	49.8	0	0	---	0.00	29.924 
01:20	54.5	54.5	54.5	85	50.1	0	0	---	0.00	29.924 
01:25	54.4	54.4	54.4	85	50.0	0	0	---	0.00	29.924 
01:30	54.2	54.2	54.2	85	49.8	0	0	---	0.00	29.924 
01:35	54.1	54.1	54.1	85	49.7	0	0	---	0.00	29.924 
01:40	53.9	53.9	53.9	86	49.8	0	0	---	0.00	29.924 
01:45	53.9	53.9	53.9	86	49.8	0	0	---	0.00	29.924 
01:50	53.8	53.8	53.8	87	50.0	0	0	---	0.00	29.924 
01:55	53.6	53.6	53.6	87	49.8	0	0	---	0.00	29.924 
02:00	53.6	53.6	53.6	87	49.8	0	0	---	0.00	29.925 
02:05	53.6	53.6	53.6	88	50.1	0	0	---	0.00	29.925 
02:10	53.5	53.5	53.5	88	50.0	0	0	---	0.00	29.925 
02:15	53.5	53.5	53.5	88	50.0	0	0	---	0.00	29.924 
02:20	53.5	53.5	53.5	88	50.0	0	0	---	0.00	29.924 
02:25	53.5	53.5	53.5	88	50.0	0	0	---	0.00	29.924 
02:30	53.5	53.5	53.5	88	50.0	0	0	---	0.00	29.923 
02:35	53.5	53.5	53.5	89	50.3	0	0	---	0.00	29.923 
02:40	53.5	53.5	53.5	89	50.3	0	0	---	0.00	29.923 
02:45	53.3	53.3	53.3	89	50.1	0	0	---	0.00	29.920 
02:50	53.3	53.3	53.3	89	50.1	0	0	---	0.00	29.920 
02:55	53.3	53.3	53.3	89	50.1	0	0	---	0.00	29.920 
03:00	53.3	53.3	53.3	90	50.4	0	0	---	0.00	29.921 
03:05	53.3	53.3	53.3	90	50.4	0	0	---	0.00	29.921 
03:10	53.5	53.5	53.5	90	50.6	0	0	---	0.00	29.921 
03:15	53.6	53.6	53.6	90	50.7	0	0	---	0.00	29.918 
03:20	53.8	53.8	53.8	90	50.9	0	0	---	0.00	29.918 
03:25	53.9	53.9	53.9	90	51.0	0	0	---	0.00	29.918 
03:30	54.1	54.1	54.1	90	51.2	0	0	---	0.00	29.915 
03:35	54.1	54.1	54.1	90	51.2	0	0	---	0.00	29.915 
03:40	54.4	54.4	54.4	90	51.5	0	0	---	0.00	29.915 
03:45	54.5	54.5	54.5	89	51.3	0	1	338	0.00	29.910 
03:50	54.5	54.5	54.5	89	51.3	0	0	---	0.00	29.910 
03:55	54.5	54.5	54.5	89	51.3	0	1	338	0.00	29.910 
04:00	54.7	54.7	54.7	89	51.5	0	1	338	0.00	29.911 
04:05	54.7	54.7	54.7	88	51.2	0	0	---	0.00	29.911 
04:10	54.7	54.7	54.7	88	51.2	0	0	---	0.00	29.911 
04:15	54.5	54.5	54.5	88	51.0	0	0	---	0.00	29.910 
04:20	54.5	54.5	54.5	88	51.0	0	0	---	0.00	29.910 
04:25	54.5	54.5	54.5	89	51.3	0	1	338	0.00	29.910 
04:30	54.5	54.5	54.5	89	51.3	0	1	338	0.00	29.912 
04:35	54.5	54.5	54.5	89	51.3	0	1	338	0.00	29.912 
04:40	54.5	54.5	54.5	89	51.3	0	0	---	0.00	29.912 
04:45	54.4	54.4	54.4	89	51.2	0	0	---	0.00	29.915 
04:50	54.5	54.5	54.5	89	51.3	0	1	338	0.00	29.915 
04:55	54.5	54.5	54.5	90	51.6	0	1	338	0.00	29.915 
05:00	54.7	54.7	54.7	90	51.8	0	1	338	0.00	29.921 
05:05	54.7	54.7	54.7	90	51.8	0	1	338	0.00	29.921 
05:10	54.8	54.8	54.8	90	51.9	0	1	338	0.00	29.921 
05:15	55.0	55.0	55.0	90	52.1	0	1	338	0.00	29.920 
05:20	55.1	55.1	55.1	90	52.2	0	0	---	0.00	29.920 
05:25	55.0	55.0	55.0	89	51.8	0	1	338	0.00	29.920 
05:30	55.0	55.0	55.0	89	51.8	0	0	---	0.00	29.917 
05:35	55.0	55.0	55.0	89	51.8	0	1	338	0.00	29.917 
05:40	54.8	54.8	54.8	89	51.6	0	0	---	0.00	29.917 
05:45	54.8	54.8	54.8	89	51.6	0	0	---	0.00	29.923 
05:50	54.7	54.7	54.7	89	51.5	0	0	---	0.00	29.923 
05:55	54.7	54.7	54.7	89	51.5	0	0	---	0.00	29.923 
06:00	54.5	54.5	54.5	89	51.3	0	0	---	0.00	29.925 
06:05	54.5	54.5	54.5	89	51.3	0	1	338	0.00	29.925 
06:10	54.4	54.4	54.4	90	51.5	0	0	---	0.00	29.925 
06:15	54.4	54.4	54.4	90	51.5	0	0	---	0.00	29.926 
06:20	54.2	54.2	54.2	90	51.3	0	0	---	0.00	29.926 
06:25	54.1	54.1	54.1	90	51.2	0	0	---	0.00	29.926 
06:30	54.1	54.1	54.1	90	51.2	0	0	---	0.00	29.927 
06:35	53.9	53.9	53.9	90	51.0	0	1	338	0.00	29.927 
06:40	53.9	53.9	53.9	90	51.0	0	1	338	0.00	29.927 
06:45	53.9	53.9	53.9	91	51.3	0	0	---	0.00	29.931 
06:50	53.9	53.9	53.9	91	51.3	0	0	---	0.00	29.931 
06:55	53.9	53.9	53.9	91	51.3	0	1	338	0.00	29.931 
07:00	54.1	54.1	54.1	91	51.5	0	1	338	0.00	29.938 
07:05	54.2	54.2	54.2	91	51.6	0	1	338	0.00	29.938 
07:10	54.4	54.4	54.4	91	51.8	0	0	---	0.00	29.938 
07:15	54.5	54.5	54.5	91	51.9	0	2	338	0.00	29.940 
07:20	54.7	54.7	54.7	90	51.8	0	1	338	0.00	29.940 
07:25	55.0	55.0	55.0	90	52.1	0	0	---	0.00	29.940 
07:30	55.1	55.1	55.1	89	51.9	0	1	338	0.00	29.942 
07:35	55.4	55.4	55.4	88	51.9	0	2	338	0.00	29.942 
07:40	55.7	55.7	55.7	87	51.9	0	1	338	0.00	29.942 
07:45	55.9	55.9	55.9	86	51.8	0	1	338	0.00	29.944 
07:50	56.2	56.2	56.2	85	51.7	0	2	338	0.00	29.944 
07:55	56.5	56.5	56.5	84	51.7	0	2	338	0.00	29.944 
08:00	56.7	56.7	56.7	83	51.6	1	3	338	0.00	29.954 
08:05	57.0	57.0	57.0	82	51.6	1	3	338	0.00	29.954 
08:10	57.3	57.3	57.3	80	51.2	1	3	315	0.00	29.954 
08:15	57.8	57.8	57.8	80	51.7	0	2	315	0.00	29.960 
08:20	58.3	58.3	58.3	79	51.8	0	2	315	0.00	29.960 
08:25	58.6	58.6	58.6	77	51.4	1	3	315	0.00	29.960 
08:30	58.7	58.7	58.7	76	51.2	1	3	315	0.00	29.962 
08:35	59.0	59.0	59.0	75	51.1	1	2	315	0.00	29.962 
08:40	59.3	59.3	59.3	74	51.0	1	2	315	0.00	29.962 
08:45	59.5	59.5	59.5	72	50.5	1	4	315	0.00	29.961 
08:50	59.8	59.8	59.8	73	51.1	1	3	315	0.00	29.961 
08:55	60.1	60.1	60.1	71	50.7	0	2	315	0.00	29.961 
09:00	60.4	60.4	60.4	70	50.6	1	2	315	0.00	29.959 
09:05	60.7	60.7	60.7	72	51.6	1	3	315	0.00	29.959 
09:10	60.9	60.9	60.9	69	50.7	1	3	315	0.00	29.959 
09:15	61.0	61.0	61.0	68	50.4	1	4	338	0.00	29.972 
09:20	61.2	61.2	61.2	69	50.9	1	4	338	0.00	29.972 
09:25	61.5	61.5	61.5	69	51.2	1	4	338	0.00	29.972 
09:30	61.5	61.5	61.5	69	51.2	1	3	315	0.00	29.973 
09:35	61.6	61.6	61.6	69	51.3	0	1	315	0.00	29.973 
09:40	62.0	62.0	62.0	66	50.5	1	5	0	0.00	29.973 
09:45	62.3	62.3	62.3	65	50.4	1	4	338	0.00	29.969 
09:50	62.4	62.4	62.4	63	49.6	2	5	315	0.00	29.969 
09:55	62.4	62.4	62.4	61	48.8	2	5	292	0.00	29.969 
10:00	62.6	62.6	62.6	62	49.4	2	4	292	0.00	29.971 
10:05	62.7	62.7	62.7	62	49.5	1	3	338	0.00	29.971 
10:10	63.2	63.2	63.2	63	50.4	1	5	338	0.00	29.971 
10:15	63.5	63.5	63.5	62	50.2	1	4	338	0.00	29.973 
10:20	63.9	63.9	63.9	58	48.8	2	5	292	0.00	29.973 
10:25	63.7	63.7	63.7	58	48.6	2	4	338	0.00	29.973 
10:30	64.0	64.0	64.0	60	49.8	1	4	292	0.00	29.971 
10:35	64.3	64.3	64.3	57	48.7	1	5	338	0.00	29.971 
10:40	64.3	64.3	64.3	57	48.7	1	4	292	0.00	29.971 
10:45	64.8	64.8	64.8	57	49.2	1	3	270	0.00	29.972 
10:50	65.2	65.2	65.2	56	49.1	2	5	315	0.00	29.972 
10:55	64.7	64.7	64.7	57	49.1	2	5	338	0.00	29.972 
11:00	64.7	64.7	64.7	58	49.6	1	4	292	0.00	29.972 
11:05	64.5	64.5	64.5	57	48.9	1	5	270	0.00	29.972 
11:10	63.9	63.9	63.9	57	48.4	2	4	292	0.00	29.972 
11:15	64.2	64.2	64.2	59	49.6	1	4	292	0.00	29.975 
11:20	64.5	64.5	64.5	56	48.4	1	5	292	0.00	29.975 
11:25	64.3	64.3	64.3	56	48.3	2	5	292	0.00	29.975 
11:30	64.2	64.2	64.2	57	48.6	2	5	315	0.00	29.980 
11:35	64.2	64.2	64.2	58	49.1	1	3	292	0.00	29.980 
11:40	64.2	64.2	64.2	57	48.6	2	5	315	0.00	29.980 
11:45	64.2	64.2	64.2	58	49.1	1	4	292	0.00	29.987 
11:50	64.0	64.0	64.0	59	49.4	1	4	292	0.00	29.987 
11:55	63.9	63.9	63.9	59	49.3	2	5	270	0.00	29.987 
12:00	63.9	63.9	63.9	60	49.7	1	3	270	0.00	29.987 
12:05	63.7	63.7	63.7	61	50.0	0	2	292	0.00	29.987 
12:10	63.9	63.9	63.9	61	50.2	0	2	292	0.00	29.987 
12:15	63.7	63.7	63.7	62	50.4	2	4	338	0.00	29.990 
12:20	63.4	63.4	63.4	62	50.1	1	4	338	0.00	29.990 
12:25	63.4	63.4	63.4	64	51.0	1	4	338	0.00	29.990 
12:30	63.5	63.5	63.5	65	51.5	1	3	338	0.00	29.992 
12:35	63.4	63.4	63.4	63	50.6	1	6	338	0.00	29.992 
12:40	63.2	63.2	63.2	64	50.8	1	4	338	0.00	29.992 
12:45	63.2	63.2	63.2	63	50.4	1	4	270	0.00	29.995 
12:50	63.4	63.4	63.4	62	50.1	1	5	338	0.00	29.995 
12:55	63.9	63.9	63.9	63	51.1	1	4	270	0.00	29.995 
13:00	64.2	64.2	64.2	62	50.9	2	4	270	0.00	29.992 
13:05	64.7	64.7	64.7	61	50.9	1	4	270	0.00	29.992 
13:10	65.5	65.5	65.5	62	52.1	1	3	270	0.00	29.992 
13:15	65.5	65.5	65.5	59	50.8	1	3	270	0.00	29.988 
13:20	65.0	65.0	65.0	60	50.8	1	4	315	0.00	29.988 
13:25	65.2	65.2	65.2	61	51.4	1	2	315	0.00	29.988 
13:30	65.5	65.5	65.5	60	51.2	1	2	315	0.00	29.987 
13:35	65.8	65.8	65.8	60	51.5	1	3	315	0.00	29.987 
13:40	65.6	65.6	65.6	59	50.9	1	3	315	0.00	29.987 
13:45	65.6	65.6	65.6	59	50.9	1	3	315	0.00	29.986 
13:50	65.5	65.5	65.5	59	50.8	0	2	315	0.00	29.986 
13:55	65.2	65.2	65.2	58	50.0	1	3	315	0.00	29.986 
14:00	65.0	65.0	65.0	59	50.3	1	4	315	0.00	29.985 
14:05	65.0	65.0	65.0	60	50.8	1	3	315	0.00	29.985 
14:10	65.3	65.3	65.3	60	51.1	0	2	315	0.00	29.985 
14:15	65.6	65.6	65.6	59	50.9	0	3	315	0.00	29.981 
14:20	65.6	65.6	65.6	59	50.9	0	2	315	0.00	29.981 
14:25	65.6	65.6	65.6	58	50.4	1	3	315	0.00	29.981 
14:30	65.5	65.5	65.5	58	50.3	1	3	315	0.00	29.984 
14:35	65.2	65.2	65.2	58	50.0	2	5	315	0.00	29.984 
14:40	64.7	64.7	64.7	59	50.0	1	4	338	0.00	29.984 
14:45	64.5	64.5	64.5	60	50.3	1	3	338	0.00	29.982 
14:50	64.5	64.5	64.5	62	51.2	0	1	338	0.00	29.982 
14:55	64.3	64.3	64.3	60	50.1	1	3	338	0.00	29.982 
15:00	64.3	64.3	64.3	60	50.1	1	3	338	0.00	29.983 
15:05	64.7	64.7	64.7	60	50.5	0	2	338	0.00	29.983 
15:10	65.0	65.0	65.0	60	50.8	1	3	338	0.00	29.983 
15:15	65.5	65.5	65.5	60	51.2	1	3	338	0.00	29.980 
15:20	65.8	65.8	65.8	58	50.6	1	4	292	0.00	29.980 
15:25	66.3	66.3	66.3	59	51.5	1	3	292	0.00	29.980 
15:30	66.6	66.6	66.6	57	50.9	1	4	292	0.00	29.976 
15:35	66.6	66.6	66.6	57	50.9	0	2	292	0.00	29.976 
15:40	66.8	66.8	66.8	59	52.0	0	1	292	0.00	29.976 
15:45	67.3	67.3	67.3	56	51.1	1	4	292	0.00	29.972 
15:50	67.3	67.3	67.3	55	50.6	1	4	315	0.00	29.972 
15:55	67.3	67.3	67.3	54	50.1	1	5	270	0.00	29.972 
16:00	67.1	67.1	67.1	55	50.4	1	3	270	0.00	29.974 
16:05	66.8	66.8	66.8	55	50.1	1	2	292	0.00	29.974 
16:10	66.8	66.8	66.8	55	50.1	1	3	292	0.00	29.974 
16:15	66.8	66.8	66.8	56	50.6	0	2	292	0.00	29.975 
16:20	66.9	66.9	66.9	56	50.7	1	4	292	0.00	29.975 
16:25	67.1	67.1	67.1	56	50.9	0	2	292	0.00	29.975 
16:30	67.3	67.3	67.3	56	51.1	1	2	292	0.00	29.979 
16:35	67.3	67.3	67.3	54	50.1	1	3	292	0.00	29.979 
16:40	67.3	67.3	67.3	55	50.6	0	3	292	0.00	29.979 
16:45	67.3	67.3	67.3	52	49.1	1	4	292	0.00	29.978 
16:50	67.3	67.3	67.3	54	50.1	0	2	292	0.00	29.978 
16:55	67.4	67.4	67.4	54	50.2	0	2	292	0.00	29.978 
17:00	67.4	67.4	67.4	53	49.7	1	3	90	0.00	29.980 
17:05	67.4	67.4	67.4	56	51.1	0	2	22	0.00	29.980 
17:10	67.1	67.1	67.1	54	49.9	1	4	22	0.00	29.980 
17:15	66.8	66.8	66.8	55	50.1	1	3	22	0.00	29.981 
17:20	66.8	66.8	66.8	55	50.1	0	2	22	0.00	29.981 
17:25	66.6	66.6	66.6	56	50.4	1	3	0	0.00	29.981 
17:30	66.4	66.4	66.4	56	50.2	1	3	0	0.00	29.983 
17:35	66.4	66.4	66.4	57	50.7	0	2	0	0.00	29.983 
17:40	66.3	66.3	66.3	57	50.6	1	2	0	0.00	29.983 
17:45	66.1	66.1	66.1	57	50.4	0	1	0	0.00	29.984 
17:50	66.3	66.3	66.3	56	50.1	0	1	0	0.00	29.984 
17:55	66.4	66.4	66.4	57	50.7	0	2	0	0.00	29.984 
18:00	66.6	66.6	66.6	58	51.4	0	1	0	0.00	29.976 
18:05	66.8	66.8	66.8	58	51.5	0	1	0	0.00	29.976 
18:10	66.6	66.6	66.6	57	50.9	0	2	0	0.00	29.976 
18:15	66.6	66.6	66.6	58	51.4	0	1	0	0.00	29.978 
18:20	66.9	66.9	66.9	58	51.6	0	1	0	0.00	29.978 
18:25	67.1	67.1	67.1	58	51.8	0	1	0	0.00	29.978 
18:30	67.3	67.3	67.3	58	52.0	0	1	0	0.00	29.974 
18:35	67.6	67.6	67.6	58	52.3	0	2	0	0.00	29.974 
18:40	67.8	67.8	67.8	56	51.5	0	2	0	0.00	29.974 
18:45	67.6	67.6	67.6	55	50.8	0	1	0	0.00	29.972 
18:50	67.4	67.4	67.4	56	51.1	0	1	0	0.00	29.972 
18:55	67.6	67.6	67.6	55	50.8	0	2	0	0.00	29.972 
19:00	67.6	67.6	67.6	56	51.3	0	1	0	0.00	29.972 
19:05	67.4	67.4	67.4	55	50.7	0	1	0	0.00	29.972 
19:10	67.3	67.3	67.3	56	51.1	0	1	0	0.00	29.972 
19:15	67.1	67.1	67.1	57	51.3	0	1	0	0.00	29.972 
19:20	67.3	67.3	67.3	57	51.5	0	1	0	0.00	29.972 
19:25	67.6	67.6	67.6	55	50.8	0	2	0	0.00	29.972 
19:30	67.6	67.6	67.6	56	51.3	0	1	0	0.00	29.975 
19:35	67.8	67.8	67.8	56	51.5	0	1	0	0.00	29.975 
19:40	67.8	67.8	67.8	56	51.5	0	1	0	0.00	29.975 
19:45	67.8	67.8	67.8	57	52.0	0	1	0	0.00	29.975 
19:50	67.6	67.6	67.6	57	51.8	0	0	---	0.00	29.975 
19:55	67.4	67.4	67.4	57	51.6	0	1	0	0.00	29.975 
20:00	67.1	67.1	67.1	57	51.3	0	0	---	0.00	29.979 
20:05	67.1	67.1	67.1	57	51.3	0	1	0	0.00	29.979 
20:10	67.1	67.1	67.1	58	51.8	0	1	0	0.00	29.979 
20:15	67.1	67.1	67.1	58	51.8	0	1	0	0.00	29.974 
20:20	67.1	67.1	67.1	58	51.8	0	0	---	0.00	29.974 
20:25	66.8	66.8	66.8	58	51.5	0	1	0	0.00	29.974 
20:30	66.6	66.6	66.6	58	51.4	0	0	---	0.00	29.973 
20:35	66.3	66.3	66.3	59	51.5	0	0	---	0.00	29.973 
20:40	65.8	65.8	65.8	59	51.1	0	0	---	0.00	29.973 
20:45	65.6	65.6	65.6	59	50.9	0	0	---	0.00	29.979 
20:50	65.3	65.3	65.3	60	51.1	0	0	---	0.00	29.979 
20:55	65.2	65.2	65.2	61	51.4	0	0	---	0.00	29.979 
21:00	64.8	64.8	64.8	62	51.5	0	0	---	0.00	29.983 
21:05	64.5	64.5	64.5	63	51.6	0	0	---	0.00	29.983 
21:10	64.2	64.2	64.2	64	51.8	0	0	---	0.00	29.983 
21:15	63.9	63.9	63.9	64	51.5	0	0	---	0.00	29.979 
21:20	63.4	63.4	63.4	66	51.8	0	0	---	0.00	29.979 
21:25	62.9	62.9	62.9	67	51.8	0	0	---	0.00	29.979 
21:30	62.4	62.4	62.4	68	51.7	0	0	---	0.00	29.982 
21:35	62.0	62.0	62.0	70	52.1	0	0	---	0.00	29.982 
21:40	61.6	61.6	61.6	71	52.1	0	0	---	0.00	29.982 
21:45	61.3	61.3	61.3	72	52.2	0	0	---	0.00	29.984 
21:50	61.0	61.0	61.0	73	52.3	0	0	---	0.00	29.984 
21:55	60.7	60.7	60.7	74	52.4	0	0	---	0.00	29.984 
22:00	60.4	60.4	60.4	75	52.4	0	0	---	0.00	29.990 
22:05	59.9	59.9	59.9	76	52.3	0	0	---	0.00	29.990 
22:10	59.8	59.8	59.8	77	52.6	0	0	---	0.00	29.990 
22:15	59.5	59.5	59.5	78	52.6	0	0	---	0.00	29.998 
22:20	59.2	59.2	59.2	79	52.7	0	0	---	0.00	29.998 
22:25	59.0	59.0	59.0	80	52.8	0	0	---	0.00	29.998 
22:30	58.9	58.9	58.9	80	52.7	0	0	---	0.00	30.001 
22:35	58.7	58.7	58.7	81	52.9	0	0	---	0.00	30.001 
22:40	58.6	58.6	58.6	80	52.4	0	0	---	0.00	30.001 
22:45	58.6	58.6	58.6	80	52.4	0	0	---	0.00	30.004 
22:50	58.4	58.4	58.4	81	52.6	0	0	---	0.00	30.004 
22:55	58.3	58.3	58.3	81	52.5	0	0	---	0.00	30.004 
23:00	58.1	58.1	58.1	81	52.3	0	0	---	0.00	30.011 
23:05	58.0	58.0	58.0	81	52.2	0	0	---	0.00	30.011 
23:10	57.8	57.8	57.8	82	52.3	0	0	---	0.00	30.011 
23:15	57.6	57.6	57.6	82	52.1	0	0	---	0.00	30.014 
23:20	57.5	57.5	57.5	83	52.4	0	0	---	0.00	30.014 
23:25	57.5	57.5	57.5	83	52.4	0	0	---	0.00	30.014 
23:30	57.5	57.5	57.5	84	52.7	0	0	---	0.00	30.016 
23:35	57.5	57.5	57.5	84	52.7	0	0	---	0.00	30.016 
23:40	57.5	57.5	57.5	84	52.7	0	0	---	0.00	30.016 
23:45	57.6	57.6	57.6	84	52.8	0	0	---	0.00	30.013 
23:50	57.6	57.6	57.6	84	52.8	0	0	---	0.00	30.013 
23:55	57.6	57.6	57.6	84	52.8	0	0	---	0.00	30.013 

CoCoRaHS
IN-AL-39
A2 Web Hosting
Creative Commons License
GoDaddy
search engine by freefind advanced

loaded 2018-11-12 19:22:33 • last modified 2010-11-18 10:43:29
Privacy PolicyDisclaimer
• wx.awcolley.com is powered by PmWiki v.2002016 •
• all content (unless otherwise noted) © 2018 A W Colley